createdAt,value
2024-03-10T00:00:35.765Z,96075.97
2024-03-10T00:03:08.184Z,96067.88
2024-03-10T00:05:40.177Z,96065.31
2024-03-10T00:08:13.572Z,96070.34
2024-03-10T00:10:44.592Z,96062.69
2024-03-10T00:13:15.696Z,96067.03
2024-03-10T00:15:46.317Z,96056.69
2024-03-10T00:18:17.832Z,96063.84
2024-03-10T00:20:48.572Z,96060.25
2024-03-10T00:23:21.756Z,96051.13
2024-03-10T00:25:52.333Z,96051.06
2024-03-10T00:28:22.864Z,96054.38
2024-03-10T00:30:53.615Z,96053.84
2024-03-10T00:33:24.311Z,96051.59
2024-03-10T00:35:55.098Z,96046.53
2024-03-10T00:38:29.141Z,96036.97
2024-03-10T00:41:00.231Z,96036.03
2024-03-10T00:43:30.968Z,96032.47
2024-03-10T00:46:01.502Z,96026.91
2024-03-10T00:48:32.099Z,96033.84
2024-03-10T00:51:02.863Z,96024.84
2024-03-10T00:53:36.026Z,96033.56
2024-03-10T00:56:06.842Z,96029.38
2024-03-10T00:58:37.408Z,96028.78
2024-03-10T01:01:08.556Z,96029.56
2024-03-10T01:03:39.152Z,96030.97
2024-03-10T01:06:09.753Z,96036.41
2024-03-10T01:08:42.999Z,96035.94
2024-03-10T01:11:13.743Z,96030.69
2024-03-10T01:13:44.944Z,96028.00
2024-03-10T01:16:15.785Z,96026.91
2024-03-10T01:18:47.592Z,96020.22
2024-03-10T01:21:18.280Z,96021.53
2024-03-10T01:23:53.639Z,96022.47
2024-03-10T01:26:24.286Z,96012.44
2024-03-10T01:28:55.100Z,96011.66
2024-03-10T01:31:27.341Z,96008.28
2024-03-10T01:33:57.996Z,96006.28
2024-03-10T01:36:28.805Z,96003.94
2024-03-10T01:39:03.006Z,96001.94
2024-03-10T01:41:33.713Z,95993.25
2024-03-10T01:44:04.350Z,95990.41
2024-03-10T01:46:37.619Z,95985.38
2024-03-10T01:49:08.962Z,95983.56
2024-03-10T01:51:41.291Z,95984.63
2024-03-10T01:54:17.148Z,95979.00
2024-03-10T01:56:48.052Z,95970.38
2024-03-10T01:59:19.335Z,95969.44
2024-03-10T02:01:50.031Z,95966.69
2024-03-10T02:09:23.530Z,95959.13
2024-03-10T02:11:54.426Z,95961.16
2024-03-10T02:14:26.693Z,95953.56
2024-03-10T02:16:57.320Z,95956.00
2024-03-10T02:19:28.413Z,95949.09
2024-03-10T02:21:59.778Z,95946.75
2024-03-10T02:24:36.588Z,95947.84
2024-03-10T02:27:17.098Z,95946.31
2024-03-10T02:30:01.776Z,95934.88
2024-03-10T02:32:45.221Z,95926.19
2024-03-10T02:35:28.407Z,95915.97
2024-03-10T02:38:11.535Z,95917.03
2024-03-10T02:40:54.558Z,95911.75
2024-03-10T02:43:40.194Z,95904.59
2024-03-10T02:46:23.154Z,95904.59
2024-03-10T02:48:54.972Z,95904.41
2024-03-10T02:51:25.643Z,95906.47
2024-03-10T02:53:56.230Z,95893.25
2024-03-10T02:56:27.140Z,95892.38
2024-03-10T02:59:00.359Z,95896.56
2024-03-10T03:01:31.504Z,95900.81
2024-03-10T03:04:02.102Z,95898.47
2024-03-10T03:06:32.601Z,95891.25
2024-03-10T03:09:05.391Z,95888.09
2024-03-10T03:11:38.761Z,95895.66
2024-03-10T03:14:15.071Z,95887.78
2024-03-10T03:16:46.281Z,95882.03
2024-03-10T03:19:17.038Z,95876.50
2024-03-10T03:21:44.781Z,95880.25
2024-03-10T03:24:12.110Z,95873.84
2024-03-10T03:26:43.909Z,95875.31
2024-03-10T03:29:17.246Z,95861.47
2024-03-10T03:31:47.812Z,95865.44
2024-03-10T03:34:18.499Z,95865.91
2024-03-10T03:36:49.028Z,95862.44
2024-03-10T03:39:21.102Z,95864.81
2024-03-10T03:41:51.661Z,95846.66
2024-03-10T03:44:25.214Z,95839.09
2024-03-10T03:46:55.827Z,95841.88
2024-03-10T03:49:26.288Z,95847.41
2024-03-10T03:51:56.764Z,95847.53
2024-03-10T03:54:27.335Z,95837.75
2024-03-10T03:56:58.726Z,95837.69
2024-03-10T03:59:31.863Z,95844.28
2024-03-10T04:02:02.624Z,95823.81
2024-03-10T04:04:33.375Z,95826.19
2024-03-10T04:07:04.156Z,95824.53
2024-03-10T04:09:35.636Z,95822.41
2024-03-10T04:12:06.465Z,95819.56
2024-03-10T04:14:40.622Z,95804.16
2024-03-10T04:17:11.818Z,95803.53
2024-03-10T04:19:42.335Z,95788.78
2024-03-10T04:22:13.890Z,95777.75
2024-03-10T04:24:44.587Z,95771.13
2024-03-10T04:27:15.078Z,95760.47
2024-03-10T04:29:49.027Z,95757.28
2024-03-10T04:32:19.665Z,95765.13
2024-03-10T04:34:51.716Z,95758.56
2024-03-10T04:37:23.779Z,95766.28
2024-03-10T04:39:54.597Z,95762.66
2024-03-10T04:42:25.374Z,95778.81
2024-03-10T04:45:00.396Z,95776.41
2024-03-10T04:47:31.018Z,95781.56
2024-03-10T04:50:01.713Z,95783.56
2024-03-10T04:52:32.332Z,95778.94
2024-03-10T04:55:02.845Z,95769.22
2024-03-10T04:57:34.486Z,95767.59
2024-03-10T05:00:11.515Z,95772.66
2024-03-10T05:02:42.316Z,95782.00
2024-03-10T05:10:12.857Z,95766.84
2024-03-10T05:12:43.462Z,95779.50
2024-03-10T05:15:17.439Z,95790.94
2024-03-10T05:17:48.444Z,95784.09
2024-03-10T05:20:23.092Z,95783.88
2024-03-10T05:22:56.523Z,95777.59
2024-03-10T05:25:27.194Z,95771.91
2024-03-10T05:27:57.657Z,95771.22
2024-03-10T05:30:32.436Z,95774.97
2024-03-10T05:33:03.013Z,95782.00
2024-03-10T05:35:33.674Z,95779.13
2024-03-10T05:38:04.924Z,95782.63
2024-03-10T05:40:36.113Z,95784.13
2024-03-10T05:43:06.878Z,95782.19
2024-03-10T05:45:39.998Z,95785.69
2024-03-10T05:48:12.554Z,95779.09
2024-03-10T05:50:43.212Z,95784.06
2024-03-10T05:53:15.249Z,95797.34
2024-03-10T05:55:45.821Z,95801.84
2024-03-10T05:58:17.918Z,95804.06
2024-03-10T06:00:52.253Z,95803.53
2024-03-10T06:03:23.731Z,95805.38
2024-03-10T06:05:54.825Z,95804.19
2024-03-10T06:10:55.773Z,95813.09
2024-03-10T06:13:26.361Z,95807.50
2024-03-10T06:15:59.538Z,95793.88
2024-03-10T06:18:33.319Z,95788.38
2024-03-10T06:21:16.563Z,95796.09
2024-03-10T06:23:59.780Z,95778.03
2024-03-10T06:26:30.285Z,95768.47
2024-03-10T06:29:02.441Z,95776.78
2024-03-10T06:31:35.658Z,95777.13
2024-03-10T06:34:06.145Z,95785.53
2024-03-10T06:36:37.056Z,95788.75
2024-03-10T06:39:07.794Z,95782.44
2024-03-10T06:41:40.137Z,95782.56
2024-03-10T06:44:10.724Z,95779.16
2024-03-10T06:46:45.651Z,95778.56
2024-03-10T06:49:16.209Z,95778.47
2024-03-10T06:51:46.821Z,95779.63
2024-03-10T06:54:17.478Z,95791.03
2024-03-10T06:56:48.034Z,95796.25
2024-03-10T06:59:19.002Z,95783.22
2024-03-10T07:01:55.582Z,95786.16
2024-03-10T07:04:28.093Z,95767.53
2024-03-10T07:06:58.600Z,95757.00
2024-03-10T07:09:29.283Z,95759.75
2024-03-10T07:12:00.181Z,95751.22
2024-03-10T07:14:30.872Z,95737.94
2024-03-10T07:17:05.342Z,95739.72
2024-03-10T07:19:37.453Z,95749.88
2024-03-10T07:22:08.233Z,95739.44
2024-03-10T07:24:39.325Z,95741.50
2024-03-10T07:27:10.450Z,95742.00
2024-03-10T07:29:41.119Z,95733.34
2024-03-10T07:32:14.285Z,95737.47
2024-03-10T07:34:48.289Z,95739.78
2024-03-10T07:37:19.237Z,95742.09
2024-03-10T07:39:49.755Z,95736.78
2024-03-10T07:42:20.234Z,95737.19
2024-03-10T07:44:50.829Z,95729.00
2024-03-10T07:47:24.350Z,95737.50
2024-03-10T07:49:55.056Z,95743.44
2024-03-10T07:52:25.595Z,95753.41
2024-03-10T07:54:56.134Z,95745.72
2024-03-10T07:57:26.633Z,95756.16
2024-03-10T07:59:57.245Z,95770.25
2024-03-10T08:02:30.540Z,95778.75
2024-03-10T08:05:01.456Z,95778.84
2024-03-10T08:07:32.111Z,95765.06
2024-03-10T08:10:03.530Z,95765.22
2024-03-10T08:12:34.110Z,95773.50
2024-03-10T08:15:04.999Z,95769.44
2024-03-10T08:17:38.217Z,95764.06
2024-03-10T08:20:10.310Z,95758.16
2024-03-10T08:22:41.197Z,95754.06
2024-03-10T08:25:12.393Z,95740.78
2024-03-10T08:27:43.175Z,95719.31
2024-03-10T08:30:17.794Z,95716.88
2024-03-10T08:32:51.539Z,95720.31
2024-03-10T08:35:22.290Z,95723.16
2024-03-10T08:37:52.904Z,95727.69
2024-03-10T08:40:23.631Z,95728.28
2024-03-10T08:42:54.246Z,95720.88
2024-03-10T08:45:25.300Z,95718.44
2024-03-10T08:47:58.632Z,95721.59
2024-03-10T08:50:29.882Z,95733.53
2024-03-10T08:53:00.668Z,95719.19
2024-03-10T08:55:31.177Z,95697.63
2024-03-10T08:58:02.293Z,95696.03
2024-03-10T09:00:33.146Z,95690.97
2024-03-10T09:03:07.818Z,95705.97
2024-03-10T09:05:38.473Z,95690.78
2024-03-10T09:08:11.213Z,95699.06
2024-03-10T09:10:52.748Z,95708.88
2024-03-10T09:18:30.160Z,95731.88
2024-03-10T09:21:00.844Z,95748.66
2024-03-10T09:23:32.183Z,95753.63
2024-03-10T09:26:04.528Z,95754.34
2024-03-10T09:28:36.018Z,95757.41
2024-03-10T09:31:10.693Z,95752.34
2024-03-10T09:33:47.615Z,95762.19
2024-03-10T09:36:18.878Z,95755.13
2024-03-10T09:38:49.899Z,95742.81
2024-03-10T09:41:22.422Z,95745.31
2024-03-10T09:43:54.866Z,95755.50
2024-03-10T09:46:25.567Z,95760.06
2024-03-10T09:48:59.138Z,95738.63
2024-03-10T09:51:32.149Z,95723.44
2024-03-10T09:54:03.434Z,95718.03
2024-03-10T09:56:36.657Z,95728.66
2024-03-10T09:59:08.986Z,95732.53
2024-03-10T10:01:40.389Z,95756.19
2024-03-10T10:04:15.315Z,95758.19
2024-03-10T10:06:47.902Z,95750.09
2024-03-10T10:09:19.423Z,95734.81
2024-03-10T10:11:50.213Z,95723.75
2024-03-10T10:14:24.797Z,95716.91
2024-03-10T10:16:57.511Z,95715.09
2024-03-10T10:19:33.522Z,95731.69
2024-03-10T10:22:07.454Z,95730.53
2024-03-10T10:24:38.223Z,95727.78
2024-03-10T10:27:10.770Z,95732.84
2024-03-10T10:29:53.710Z,95716.13
2024-03-10T10:32:26.154Z,95724.34
2024-03-10T10:35:01.765Z,95716.69
2024-03-10T10:37:35.777Z,95714.34
2024-03-10T10:40:12.767Z,95725.34
2024-03-10T10:42:53.957Z,95717.53
2024-03-10T10:45:32.299Z,95712.81
2024-03-10T10:48:03.941Z,95713.09
2024-03-10T10:50:39.393Z,95723.31
2024-03-10T10:53:13.579Z,95716.94
2024-03-10T10:55:46.976Z,95702.16
2024-03-10T10:58:22.748Z,95700.66
2024-03-10T11:00:54.608Z,95688.47
2024-03-10T11:03:28.116Z,95678.47
2024-03-10T11:06:32.869Z,95679.78
2024-03-10T11:09:15.383Z,95684.13
2024-03-10T11:11:53.799Z,95701.56
2024-03-10T11:14:29.283Z,95687.75
2024-03-10T11:17:18.331Z,95688.50
2024-03-10T11:19:50.488Z,95694.97
2024-03-10T11:22:29.888Z,95699.16
2024-03-10T11:25:18.306Z,95706.81
2024-03-10T11:27:50.178Z,95695.78
2024-03-10T11:30:50.720Z,95703.84
2024-03-10T11:33:28.658Z,95691.81
2024-03-10T11:36:01.683Z,95680.06
2024-03-10T11:38:35.465Z,95680.84
2024-03-10T11:41:10.163Z,95681.00
2024-03-10T11:43:43.314Z,95681.88
2024-03-10T11:46:26.244Z,95681.81
2024-03-10T11:48:57.828Z,95691.22
2024-03-10T11:51:30.431Z,95697.94
2024-03-10T11:54:05.382Z,95708.91
2024-03-10T11:56:36.333Z,95711.03
2024-03-10T11:59:07.720Z,95709.28
2024-03-10T12:01:38.402Z,95715.88
2024-03-10T12:04:10.968Z,95711.84
2024-03-10T12:06:41.977Z,95718.84
2024-03-10T12:09:22.513Z,95724.25
2024-03-10T12:11:53.316Z,95717.25
2024-03-10T12:14:24.062Z,95713.22
2024-03-10T12:16:54.677Z,95705.41
2024-03-10T12:19:27.565Z,95704.28
2024-03-10T12:21:59.241Z,95692.03
2024-03-10T12:24:34.147Z,95678.25
2024-03-10T12:27:09.075Z,95694.22
2024-03-10T12:29:49.197Z,95699.69
2024-03-10T12:32:20.039Z,95697.06
2024-03-10T12:34:50.573Z,95697.38
2024-03-10T12:37:21.550Z,95690.00
2024-03-10T12:40:02.355Z,95697.59
2024-03-10T12:42:36.216Z,95699.44
2024-03-10T12:45:09.606Z,95702.06
2024-03-10T12:47:41.514Z,95702.59
2024-03-10T12:50:11.844Z,95707.59
2024-03-10T12:52:43.700Z,95707.81
2024-03-10T12:55:17.225Z,95722.88
2024-03-10T12:57:48.550Z,95724.41
2024-03-10T13:00:30.579Z,95711.56
2024-03-10T13:03:02.153Z,95709.19
2024-03-10T13:05:32.952Z,95714.56
2024-03-10T13:08:03.981Z,95704.13
2024-03-10T13:10:37.183Z,95713.91
2024-03-10T13:13:09.301Z,95707.47
2024-03-10T13:15:41.731Z,95712.84
2024-03-10T13:18:15.980Z,95705.44
2024-03-10T13:20:48.364Z,95720.47
2024-03-10T13:23:19.063Z,95723.59
2024-03-10T13:25:52.450Z,95724.72
2024-03-10T13:28:24.185Z,95727.03
2024-03-10T13:30:54.797Z,95737.00
2024-03-10T13:33:25.762Z,95746.78
2024-03-10T13:36:06.408Z,95738.88
2024-03-10T13:38:44.446Z,95754.03
2024-03-10T13:41:17.934Z,95752.75
2024-03-10T13:43:49.016Z,95764.53
2024-03-10T13:46:19.677Z,95761.97
2024-03-10T13:48:50.542Z,95768.66
2024-03-10T13:51:21.724Z,95769.91
2024-03-10T13:53:53.113Z,95773.50
2024-03-10T13:56:27.131Z,95775.28
2024-03-10T13:58:57.908Z,95780.38
2024-03-10T14:01:28.696Z,95781.94
2024-03-10T14:04:00.071Z,95785.25
2024-03-10T14:06:32.688Z,95792.13
2024-03-10T14:11:29.823Z,95788.81
2024-03-10T14:13:57.780Z,95800.81
2024-03-10T14:16:25.743Z,95803.63
2024-03-10T14:18:53.606Z,95804.13
2024-03-10T14:21:21.548Z,95807.44
2024-03-10T14:23:49.352Z,95811.81
2024-03-10T14:28:46.559Z,95820.22
2024-03-10T14:31:14.332Z,95815.13
2024-03-10T14:33:42.324Z,95817.66
2024-03-10T14:36:10.201Z,95824.78
2024-03-10T14:38:39.884Z,95818.94
2024-03-10T14:41:07.985Z,95825.06
2024-03-10T14:43:35.863Z,95821.50
2024-03-10T14:46:06.385Z,95827.38
2024-03-10T14:48:34.283Z,95837.53
2024-03-10T14:51:02.208Z,95845.72
2024-03-10T14:53:30.050Z,95855.97
2024-03-10T14:55:58.086Z,95860.06
2024-03-10T14:58:25.919Z,95858.53
2024-03-10T15:00:54.008Z,95864.41
2024-03-10T15:03:24.611Z,95856.44
2024-03-10T15:05:53.081Z,95843.38
2024-03-10T15:08:21.154Z,95842.06
2024-03-10T15:10:49.884Z,95832.94
2024-03-10T15:13:22.450Z,95841.81
2024-03-10T15:15:54.292Z,95843.09
2024-03-10T15:18:28.569Z,95839.41
2024-03-10T15:21:00.576Z,95827.63
2024-03-10T15:23:31.387Z,95841.34
2024-03-10T15:26:06.273Z,95837.78
2024-03-10T15:28:39.272Z,95830.56
2024-03-10T15:31:09.920Z,95835.59
2024-03-10T15:33:43.147Z,95838.69
2024-03-10T15:36:16.916Z,95845.28
2024-03-10T15:38:49.039Z,95829.44
2024-03-10T15:41:20.666Z,95833.81
2024-03-10T15:43:51.309Z,95834.63
2024-03-10T15:46:21.878Z,95840.94
2024-03-10T15:48:55.044Z,95839.91
2024-03-10T15:51:25.634Z,95850.09
2024-03-10T15:53:56.210Z,95853.06
2024-03-10T15:56:27.130Z,95849.22
2024-03-10T15:58:57.867Z,95851.25
2024-03-10T16:01:28.612Z,95868.47
2024-03-10T16:04:05.467Z,95882.28
2024-03-10T16:06:36.267Z,95884.91
2024-03-10T16:09:12.030Z,95899.22
2024-03-10T16:11:44.716Z,95912.63
2024-03-10T16:14:19.120Z,95917.44
2024-03-10T16:16:51.443Z,95923.31
2024-03-10T16:19:26.002Z,95931.59
2024-03-10T16:21:56.593Z,95929.63
2024-03-10T16:24:30.502Z,95920.19
2024-03-10T16:31:59.868Z,95925.47
2024-03-10T16:34:33.108Z,95929.69
2024-03-10T16:37:06.381Z,95934.28
2024-03-10T16:39:36.980Z,95933.31
2024-03-10T16:42:10.372Z,95942.44
2024-03-10T16:44:42.405Z,95939.53
2024-03-10T16:47:13.132Z,95940.78
2024-03-10T16:49:50.900Z,95933.75
2024-03-10T16:52:20.776Z,95936.78
2024-03-10T16:54:51.285Z,95932.31
2024-03-10T16:57:21.853Z,95935.34
2024-03-10T16:59:52.974Z,95931.28
2024-03-10T17:02:23.652Z,95938.97
2024-03-10T17:04:56.816Z,95945.47
2024-03-10T17:07:27.511Z,95948.19
2024-03-10T17:09:58.049Z,95951.28
2024-03-10T17:12:28.621Z,95949.19
2024-03-10T17:14:59.256Z,95950.84
2024-03-10T17:17:30.755Z,95959.88
2024-03-10T17:20:07.595Z,95965.41
2024-03-10T17:22:38.701Z,95978.81
2024-03-10T17:25:10.433Z,95986.28
2024-03-10T17:27:41.529Z,95981.66
2024-03-10T17:30:17.238Z,95992.84
2024-03-10T17:32:52.560Z,95990.31
2024-03-10T17:35:28.007Z,95995.13
2024-03-10T17:37:59.536Z,96005.56
2024-03-10T17:40:31.085Z,96006.94
2024-03-10T17:43:01.759Z,96009.88
2024-03-10T17:45:32.697Z,96027.66
2024-03-10T17:48:04.124Z,96035.03
2024-03-10T17:50:41.374Z,96048.28
2024-03-10T17:53:12.381Z,96062.28
2024-03-10T17:55:44.306Z,96068.97
2024-03-10T17:58:15.192Z,96071.72
2024-03-10T18:00:48.623Z,96067.59
2024-03-10T18:03:19.589Z,96076.19
2024-03-10T18:05:52.938Z,96082.88
2024-03-10T18:08:25.296Z,96088.09
2024-03-10T18:10:58.444Z,96083.50
2024-03-10T18:13:29.117Z,96088.91
2024-03-10T18:15:59.686Z,96088.03
2024-03-10T18:18:30.280Z,96096.44
2024-03-10T18:21:05.004Z,96097.97
2024-03-10T18:23:35.649Z,96118.06
2024-03-10T18:26:07.977Z,96118.63
2024-03-10T18:28:39.693Z,96129.28
2024-03-10T18:33:40.712Z,96144.19
2024-03-10T18:36:14.060Z,96149.38
2024-03-10T18:38:45.883Z,96149.94
2024-03-10T18:41:16.537Z,96158.38
2024-03-10T18:43:47.491Z,96165.91
2024-03-10T18:46:18.762Z,96166.09
2024-03-10T18:48:49.510Z,96167.19
2024-03-10T18:51:23.016Z,96173.00
2024-03-10T18:53:53.982Z,96167.50
2024-03-10T18:56:24.813Z,96166.97
2024-03-10T18:58:55.579Z,96172.47
2024-03-10T19:01:26.323Z,96169.94
2024-03-10T19:03:56.935Z,96166.41
2024-03-10T19:06:30.552Z,96166.53
2024-03-10T19:09:01.141Z,96168.78
2024-03-10T19:11:31.701Z,96166.69
2024-03-10T19:14:02.372Z,96166.56
2024-03-10T19:16:32.928Z,96174.78
2024-03-10T19:19:03.451Z,96178.63
2024-03-10T19:21:36.854Z,96171.91
2024-03-10T19:24:07.871Z,96188.19
2024-03-10T19:26:38.449Z,96193.88
2024-03-10T19:29:10.630Z,96192.78
2024-03-10T19:31:41.249Z,96201.44
2024-03-10T19:34:11.766Z,96201.38
2024-03-10T19:36:44.930Z,96202.53
2024-03-10T19:39:15.565Z,96209.28
2024-03-10T19:41:46.221Z,96216.53
2024-03-10T19:44:18.090Z,96218.72
2024-03-10T19:46:50.510Z,96225.16
2024-03-10T19:49:21.512Z,96236.47
2024-03-10T19:51:55.050Z,96235.16
2024-03-10T19:54:25.615Z,96241.41
2024-03-10T19:56:56.540Z,96246.59
2024-03-10T19:59:27.078Z,96255.94
2024-03-10T20:01:57.620Z,96254.22
2024-03-10T20:04:28.192Z,96253.28
2024-03-10T20:07:01.820Z,96260.75
2024-03-10T20:09:33.414Z,96268.13
2024-03-10T20:12:05.877Z,96256.31
2024-03-10T20:14:36.707Z,96270.41
2024-03-10T20:17:07.559Z,96269.06
2024-03-10T20:19:38.365Z,96265.41
2024-03-10T20:22:12.010Z,96265.41
2024-03-10T20:24:42.596Z,96269.88
2024-03-10T20:27:13.598Z,96276.47
2024-03-10T20:29:44.916Z,96276.06
2024-03-10T20:32:15.450Z,96280.16
2024-03-10T20:34:46.020Z,96276.84
2024-03-10T20:37:19.321Z,96274.31
2024-03-10T20:39:52.638Z,96275.25
2024-03-10T20:42:23.321Z,96276.59
2024-03-10T20:44:54.907Z,96269.78
2024-03-10T20:47:26.298Z,96275.13
2024-03-10T20:49:56.958Z,96273.25
2024-03-10T20:52:30.197Z,96275.00
2024-03-10T20:55:00.899Z,96270.75
2024-03-10T20:57:31.612Z,96270.91
2024-03-10T21:00:05.068Z,96275.81
2024-03-10T21:02:35.568Z,96289.25
2024-03-10T21:05:06.342Z,96292.56
2024-03-10T21:07:40.490Z,96292.81
2024-03-10T21:10:16.399Z,96294.91
2024-03-10T21:12:47.644Z,96316.50
2024-03-10T21:15:20.055Z,96321.75
2024-03-10T21:17:53.029Z,96316.53
2024-03-10T21:20:24.936Z,96317.75
2024-03-10T21:22:58.311Z,96327.16
2024-03-10T21:25:30.017Z,96324.41
2024-03-10T21:28:01.064Z,96332.75
2024-03-10T21:30:32.577Z,96332.19
2024-03-10T21:33:03.143Z,96342.69
2024-03-10T21:35:33.676Z,96345.06
2024-03-10T21:38:09.084Z,96361.19
2024-03-10T21:40:40.442Z,96355.16
2024-03-10T21:43:12.411Z,96366.22
2024-03-10T21:45:46.541Z,96371.69
2024-03-10T21:48:17.162Z,96360.97
2024-03-10T21:50:48.068Z,96361.34
2024-03-10T21:53:21.991Z,96369.72
2024-03-10T21:55:53.635Z,96369.16
2024-03-10T21:58:24.224Z,96362.16
2024-03-10T22:00:54.892Z,96370.72
2024-03-10T22:03:26.288Z,96369.75
2024-03-10T22:05:56.800Z,96365.09
2024-03-10T22:08:29.928Z,96369.56
2024-03-10T22:11:00.510Z,96368.41
2024-03-10T22:13:31.825Z,96371.69
2024-03-10T22:16:02.583Z,96373.63
2024-03-10T22:18:34.405Z,96377.75
2024-03-10T22:21:05.710Z,96384.75
2024-03-10T22:23:38.912Z,96391.50
2024-03-10T22:26:10.399Z,96394.03
2024-03-10T22:28:42.666Z,96397.16
2024-03-10T22:31:13.755Z,96395.22
2024-03-10T22:38:45.878Z,96394.03
2024-03-10T22:41:16.886Z,96403.56
2024-03-10T22:43:47.714Z,96400.66
2024-03-10T22:46:18.353Z,96397.94
2024-03-10T22:48:49.178Z,96397.13
2024-03-10T22:51:19.742Z,96406.28
2024-03-10T22:53:52.943Z,96411.53
2024-03-10T22:56:23.751Z,96403.00
2024-03-10T22:58:54.290Z,96399.69
2024-03-10T23:01:24.863Z,96403.75
2024-03-10T23:03:55.519Z,96403.38
2024-03-10T23:06:26.141Z,96409.19
2024-03-10T23:08:59.615Z,96405.91
2024-03-10T23:11:30.344Z,96402.19
2024-03-10T23:14:01.373Z,96404.94
2024-03-10T23:16:31.979Z,96400.84
2024-03-10T23:19:03.571Z,96405.72
2024-03-10T23:21:37.025Z,96405.31
2024-03-10T23:24:13.854Z,96407.66
2024-03-10T23:26:46.288Z,96399.84
2024-03-10T23:29:18.441Z,96407.25
2024-03-10T23:31:52.479Z,96406.47
2024-03-10T23:34:23.411Z,96406.66
2024-03-10T23:36:53.878Z,96412.72
2024-03-10T23:39:27.081Z,96419.13
2024-03-10T23:41:57.589Z,96416.00
2024-03-10T23:44:28.140Z,96416.78
2024-03-10T23:46:58.926Z,96420.84
2024-03-10T23:49:29.426Z,96425.91
2024-03-10T23:51:59.881Z,96425.53
2024-03-10T23:54:33.068Z,96423.00
2024-03-10T23:57:03.982Z,96420.84
2024-03-10T23:59:35.104Z,96421.84
